Terminal Aerodrome Forecast
Issued by NWS

Home | Current Version | Previous Version | Text Only | Print | Product List | Glossary On
Versions: 1 2 3 4 5 6 7 8 9 10 11 12 13 14 15 16 17 18 19 20 21 22 23 24 25 26 27 28 29 30 31 32
000
FTUS44 KLZK 301720
TAFLIT
TAF
KLIT 301720Z 3018/3118 VRB04KT 6SM -SHRA BR SCT050 OVC100
     FM302300 10006KT 6SM -SHRA SCT025 OVC050
      TEMPO 3100/3104 4SM -RA BR BKN025
     FM310400 09008KT 3SM -SHRA BR VCTS BKN007 OVC015CB
     FM310800 07006KT 3SM -SHRA BR OVC007
     FM311500 03009KT 6SM BR VCSH OVC015=

USA.gov is the U.S. government's official web portal to all federal, state and local government web resources and services.